Time;durP1;ratioP1;P1;durP2;ratioP2;P2;SDS_P1;SDS_P2;PMS_P1;PMS_P2;Temp;Humidity;BMP_temperature;BMP_pressure;BME280_temperature;BME280_humidity;BME280_pressure;Samples;Min_cycle;Max_cycle;Signal;HPM_P1;HPM_P2
2021/07/07 00:01:35;;;;;;;17.40;10.30;;;614.50;2252.80;;;;;;5097385;28;20436;-59
2021/07/07 00:04:01;;;;;;;13.43;10.27;;;614.50;2252.80;;;;;;5096943;28;20024;-59
2021/07/07 00:06:27;;;;;;;12.80;10.50;;;614.40;2252.80;;;;;;5097788;28;20026;-59
2021/07/07 00:08:53;;;;;;;12.73;10.98;;;614.40;2278.40;;;;;;5097005;28;20032;-59
2021/07/07 00:11:18;;;;;;;13.80;10.18;;;614.40;2278.40;;;;;;5097202;28;20079;-58
2021/07/07 00:13:44;;;;;;;16.67;11.95;;;614.40;2278.40;;;;;;5097018;28;20493;-59
2021/07/07 00:16:11;;;;;;;17.30;12.15;;;589.70;2278.40;;;;;;5096775;28;20028;-59
2021/07/07 00:18:36;;;;;;;17.75;12.25;;;589.70;2278.40;;;;;;5097025;28;20542;-58
2021/07/07 00:21:02;;;;;;;17.00;12.05;;;589.70;2278.40;;;;;;5097026;28;20040;-60
2021/07/07 00:23:30;;;;;;;17.48;12.35;;;589.60;2278.40;;;;;;5096552;28;20359;-60
2021/07/07 00:25:56;;;;;;;13.98;12.15;;;589.60;2304.00;;;;;;5096892;28;20415;-60
2021/07/07 00:28:23;;;;;;;17.67;12.75;;;589.60;2304.00;;;;;;5096706;28;20077;-58
2021/07/07 00:30:51;;;;;;;18.77;13.35;;;589.60;2304.00;;;;;;5096756;28;20474;-59
2021/07/07 00:33:17;;;;;;;18.27;13.23;;;589.60;2304.00;;;;;;5096832;28;20462;-59
2021/07/07 00:35:43;;;;;;;17.27;14.23;;;589.60;2329.60;;;;;;5095105;28;20123;-59
2021/07/07 00:38:09;;;;;;;15.45;13.38;;;589.40;2329.60;;;;;;5096509;28;20024;-59
2021/07/07 00:40:35;;;;;;;18.95;13.15;;;589.40;2329.60;;;;;;5096779;28;20033;-59
2021/07/07 00:43:02;;;;;;;16.95;13.35;;;589.40;2329.60;;;;;;5096273;28;20024;-60
2021/07/07 00:45:27;;;;;;;17.98;13.40;;;589.40;2304.00;;;;;;5096433;28;20024;-59
2021/07/07 00:47:53;;;;;;;21.02;13.95;;;589.40;2304.00;;;;;;5096533;28;20073;-59
2021/07/07 00:50:19;;;;;;;19.05;13.30;;;589.40;2304.00;;;;;;5096603;28;20040;-59
2021/07/07 00:52:45;;;;;;;17.35;13.50;;;589.40;2304.00;;;;;;5096296;28;20031;-59
2021/07/07 00:55:14;;;;;;;16.00;12.98;;;589.40;2304.00;;;;;;5096431;28;20020;-58
2021/07/07 00:57:46;;;;;;;16.45;12.80;;;589.40;2304.00;;;;;;5096258;28;20028;-59
2021/07/07 01:00:17;;;;;;;15.63;13.07;;;589.40;2304.00;;;;;;5096352;28;20359;-59
2021/07/07 01:02:44;;;;;;;16.42;12.50;;;589.40;2304.00;;;;;;5096176;28;20080;-59
2021/07/07 01:05:13;;;;;;;17.33;13.52;;;589.40;2304.00;;;;;;5094856;28;20526;-59
2021/07/07 01:07:39;;;;;;;16.10;13.13;;;589.40;2304.00;;;;;;5095952;28;20047;-59
2021/07/07 01:10:07;;;;;;;17.50;13.15;;;589.40;2278.40;;;;;;5095517;28;20036;-60
2021/07/07 01:12:33;;;;;;;15.68;12.82;;;589.40;2304.00;;;;;;5095258;28;20103;-60
2021/07/07 01:15:11;;;;;;;16.35;13.85;;;589.40;2304.00;;;;;;5096408;28;20408;-61
2021/07/07 01:17:37;;;;;;;17.17;13.50;;;589.40;2304.00;;;;;;5096109;28;20024;-60
2021/07/07 01:20:12;;;;;;;17.05;12.70;;;589.40;2304.00;;;;;;5095839;28;20097;-59
2021/07/07 01:22:39;;;;;;;16.63;13.05;;;589.40;2304.00;;;;;;5095555;28;20016;-59
2021/07/07 01:25:06;;;;;;;17.67;13.55;;;589.40;2304.00;;;;;;5095605;28;20032;-59
2021/07/07 01:27:32;;;;;;;16.23;13.80;;;589.30;2304.00;;;;;;5095722;28;20093;-59
2021/07/07 01:29:58;;;;;;;23.40;14.63;;;589.30;2304.00;;;;;;5095938;28;20423;-59
2021/07/07 01:32:24;;;;;;;17.10;13.77;;;589.30;2304.00;;;;;;5095695;28;20020;-59
2021/07/07 01:34:50;;;;;;;18.15;13.80;;;589.20;2304.00;;;;;;5095766;28;20082;-59
2021/07/07 01:37:16;;;;;;;16.60;14.20;;;589.20;2304.00;;;;;;5095539;28;20055;-59
2021/07/07 01:39:42;;;;;;;19.17;13.93;;;589.20;2304.00;;;;;;5095449;28;20034;-59
2021/07/07 01:42:08;;;;;;;18.55;14.63;;;589.20;2304.00;;;;;;5095496;28;20034;-58
2021/07/07 01:44:34;;;;;;;17.85;14.25;;;589.10;2304.00;;;;;;5095179;28;20478;-59
2021/07/07 01:47:02;;;;;;;16.90;14.00;;;589.10;2304.00;;;;;;5095602;28;20074;-59
2021/07/07 01:49:28;;;;;;;24.50;16.08;;;589.10;2304.00;;;;;;5095443;28;20135;-59
2021/07/07 01:51:54;;;;;;;18.70;15.52;;;589.10;2278.40;;;;;;5095275;28;20393;-60
2021/07/07 01:54:20;;;;;;;19.20;15.00;;;589.00;2278.40;;;;;;5095049;28;20024;-60
2021/07/07 01:56:46;;;;;;;20.17;15.38;;;589.00;2304.00;;;;;;5095199;28;20058;-61
2021/07/07 01:59:12;;;;;;;19.13;14.52;;;589.00;2304.00;;;;;;5095130;28;20530;-58
2021/07/07 02:01:37;;;;;;;16.60;13.90;;;589.00;2304.00;;;;;;5095180;28;20024;-60
2021/07/07 02:04:03;;;;;;;16.80;13.57;;;589.00;2304.00;;;;;;5095241;28;20024;-58
2021/07/07 02:06:29;;;;;;;22.70;14.75;;;588.90;2304.00;;;;;;5094897;28;20369;-59
2021/07/07 02:08:58;;;;;;;21.13;14.77;;;588.90;2278.40;;;;;;5093087;28;20032;-58
2021/07/07 02:11:24;;;;;;;17.77;14.00;;;588.90;2304.00;;;;;;5094313;28;20581;-59
2021/07/07 02:13:51;;;;;;;20.42;16.10;;;588.80;2304.00;;;;;;5082599;28;20104;-58
2021/07/07 02:16:17;;;;;;;18.45;15.02;;;588.80;2304.00;;;;;;5083230;28;20492;-59
2021/07/07 02:18:43;;;;;;;18.48;13.93;;;588.80;2304.00;;;;;;5082777;28;20024;-58
2021/07/07 02:21:09;;;;;;;18.88;13.82;;;564.10;2304.00;;;;;;5083192;28;20117;-58
2021/07/07 02:23:35;;;;;;;17.30;13.90;;;564.10;2304.00;;;;;;5083615;28;20052;-58
2021/07/07 02:26:00;;;;;;;19.08;14.88;;;564.10;2304.00;;;;;;5082776;28;20027;-58
2021/07/07 02:28:26;;;;;;;18.58;14.32;;;564.10;2304.00;;;;;;5081872;28;20440;-58
2021/07/07 02:30:54;;;;;;;19.38;14.65;;;564.10;2329.60;;;;;;5073663;28;20098;-59
2021/07/07 02:33:20;;;;;;;20.23;15.80;;;564.00;2329.60;;;;;;5074186;28;20055;-59
2021/07/07 02:35:47;;;;;;;20.65;15.43;;;564.00;2329.60;;;;;;5074038;28;20025;-59
2021/07/07 02:38:17;;;;;;;22.00;16.17;;;564.00;2355.20;;;;;;5073944;28;20028;-59
2021/07/07 02:40:44;;;;;;;20.55;16.42;;;563.90;2355.20;;;;;;5073900;28;20032;-60
2021/07/07 02:43:10;;;;;;;22.77;17.00;;;563.70;2380.80;;;;;;5074042;28;20103;-59
2021/07/07 02:45:37;;;;;;;21.45;17.33;;;563.70;2380.80;;;;;;5074082;28;20454;-58
2021/07/07 02:48:05;;;;;;;23.65;16.75;;;563.70;2380.80;;;;;;5074103;28;20036;-59
2021/07/07 02:50:32;;;;;;;22.00;16.73;;;563.70;2380.80;;;;;;5073887;28;20374;-58
2021/07/07 02:52:58;;;;;;;20.02;15.15;;;563.70;2355.20;;;;;;5074219;28;20101;-57
2021/07/07 02:55:25;;;;;;;19.45;15.32;;;563.70;2355.20;;;;;;5073732;28;20052;-59
2021/07/07 03:00:38;;;;;;;19.52;15.27;;;563.80;2355.20;;;;;;5074193;28;20035;-59
2021/07/07 03:03:08;;;;;;;22.38;16.38;;;563.80;2355.20;;;;;;5072376;28;20107;-58
2021/07/07 03:05:40;;;;;;;17.77;14.88;;;563.80;2329.60;;;;;;5073718;28;20161;-58
2021/07/07 03:08:08;;;;;;;18.73;15.13;;;563.80;2329.60;;;;;;5073374;28;20024;-59
2021/07/07 03:10:34;;;;;;;20.33;15.05;;;563.70;2304.00;;;;;;5073801;28;20033;-59
2021/07/07 03:12:59;;;;;;;19.20;15.65;;;563.70;2329.60;;;;;;5073765;28;20424;-59
2021/07/07 03:15:26;;;;;;;20.42;16.10;;;563.70;2329.60;;;;;;5073705;28;20051;-59
2021/07/07 03:17:53;;;;;;;21.70;16.05;;;563.70;2329.60;;;;;;5073518;28;20028;-59
2021/07/07 03:20:19;;;;;;;23.50;16.65;;;563.80;2329.60;;;;;;5073725;28;20031;-61
2021/07/07 03:22:45;;;;;;;20.77;16.13;;;563.70;2329.60;;;;;;5073480;28;20460;-61
2021/07/07 03:25:11;;;;;;;23.13;16.20;;;563.80;2304.00;;;;;;5073593;28;20039;-60
2021/07/07 03:27:37;;;;;;;21.58;16.55;;;563.80;2329.60;;;;;;5073470;28;20465;-61
2021/07/07 03:30:04;;;;;;;21.35;15.60;;;563.90;2304.00;;;;;;5073693;28;20047;-61
2021/07/07 03:32:30;;;;;;;25.33;16.02;;;563.90;2304.00;;;;;;5073752;28;20020;-62
2021/07/07 03:34:56;;;;;;;22.80;15.55;;;563.90;2304.00;;;;;;5075924;28;20389;-61
2021/07/07 03:37:21;;;;;;;21.73;15.65;;;564.00;2304.00;;;;;;5077348;28;20028;-61
2021/07/07 03:39:48;;;;;;;26.25;16.55;;;564.00;2304.00;;;;;;5077550;28;20024;-61
2021/07/07 03:42:13;;;;;;;23.63;16.35;;;563.90;2304.00;;;;;;5077573;28;20028;-61
2021/07/07 03:44:39;;;;;;;24.17;16.92;;;563.90;2304.00;;;;;;5077537;28;20031;-61
2021/07/07 03:47:05;;;;;;;23.67;16.90;;;564.00;2304.00;;;;;;5077561;28;20105;-61
2021/07/07 03:49:30;;;;;;;29.27;18.35;;;564.00;2278.40;;;;;;5077072;28;20040;-62
2021/07/07 03:51:56;;;;;;;26.67;18.90;;;564.00;2278.40;;;;;;5077148;28;20025;-61
2021/07/07 03:54:24;;;;;;;25.73;19.17;;;564.00;2278.40;;;;;;5077297;28;20488;-62
2021/07/07 03:56:52;;;;;;;23.00;18.48;;;564.00;2304.00;;;;;;5077170;28;20095;-62
2021/07/07 03:59:18;;;;;;;23.40;18.83;;;564.00;2278.40;;;;;;5075933;28;20124;-61
2021/07/07 04:01:44;;;;;;;24.38;19.40;;;564.10;2304.00;;;;;;5077010;28;20024;-61
2021/07/07 04:04:09;;;;;;;24.25;18.80;;;564.00;2304.00;;;;;;5076975;28;20035;-62
2021/07/07 04:06:35;;;;;;;22.98;17.48;;;564.10;2304.00;;;;;;5077017;28;20428;-61
2021/07/07 04:09:02;;;;;;;21.20;16.73;;;564.10;2304.00;;;;;;5076818;28;20145;-61
2021/07/07 04:11:28;;;;;;;19.95;16.80;;;588.80;2304.00;;;;;;5089309;28;20024;-61
2021/07/07 04:13:53;;;;;;;21.52;15.43;;;588.80;2304.00;;;;;;5096977;28;20043;-61
2021/07/07 04:16:19;;;;;;;18.75;15.13;;;588.90;2304.00;;;;;;5076879;28;20462;-61
2021/07/07 04:18:45;;;;;;;19.88;14.98;;;589.00;2278.40;;;;;;5081695;28;20024;-62
2021/07/07 04:21:10;;;;;;;22.30;14.80;;;589.00;2278.40;;;;;;5097191;28;20024;-61
2021/07/07 04:23:36;;;;;;;20.58;15.27;;;589.00;2278.40;;;;;;5096613;28;20044;-62
2021/07/07 04:26:02;;;;;;;23.80;15.40;;;589.10;2252.80;;;;;;5096995;28;20024;-61
2021/07/07 04:28:27;;;;;;;22.05;14.70;;;589.10;2252.80;;;;;;5096803;28;20473;-60
2021/07/07 04:30:53;;;;;;;27.27;14.98;;;589.10;2252.80;;;;;;5096749;28;20040;-61
2021/07/07 04:33:19;;;;;;;23.98;14.55;;;589.20;2252.80;;;;;;5096865;28;20030;-61
2021/07/07 04:35:44;;;;;;;21.98;14.10;;;589.20;2252.80;;;;;;5097023;28;20032;-61
2021/07/07 04:38:10;;;;;;;21.77;14.35;;;589.30;2227.20;;;;;;5096596;28;20054;-61
2021/07/07 04:40:36;;;;;;;19.45;14.38;;;589.30;2252.80;;;;;;5096309;28;20103;-61
2021/07/07 04:43:03;;;;;;;19.08;14.70;;;589.40;2252.80;;;;;;5096748;28;20024;-60
2021/07/07 04:45:30;;;;;;;19.38;14.95;;;589.40;2252.80;;;;;;5096335;28;20351;-60
2021/07/07 04:47:55;;;;;;;18.35;14.55;;;589.50;2227.20;;;;;;5096574;28;20081;-59
2021/07/07 04:50:21;;;;;;;22.25;14.70;;;589.60;2227.20;;;;;;5096353;28;20036;-60
2021/07/07 04:52:48;;;;;;;21.20;14.60;;;589.60;2227.20;;;;;;5096319;28;20020;-60
2021/07/07 04:55:17;;;;;;;20.30;15.07;;;589.70;2201.60;;;;;;5096150;28;20024;-60
2021/07/07 04:57:43;;;;;;;20.08;15.32;;;589.70;2201.60;;;;;;5096228;28;20020;-60
2021/07/07 05:00:30;;;;;;;19.63;16.35;;;589.70;2201.60;;;;;;5088552;28;20025;-60
2021/07/07 05:02:56;;;;;;;21.00;15.30;;;614.40;2201.60;;;;;;5076167;28;20025;-60
2021/07/07 05:05:22;;;;;;;21.65;16.00;;;614.50;2201.60;;;;;;5075911;28;20024;-60
2021/07/07 05:07:49;;;;;;;24.95;16.38;;;614.50;2176.00;;;;;;5075972;28;20470;-59
2021/07/07 05:10:15;;;;;;;18.67;15.00;;;614.50;2176.00;;;;;;5075922;28;20036;-59
2021/07/07 05:12:42;;;;;;;22.50;15.82;;;614.50;2176.00;;;;;;5075892;28;20103;-60
2021/07/07 05:15:11;;;;;;;22.33;15.50;;;614.60;2176.00;;;;;;5075706;28;20580;-60
2021/07/07 05:17:37;;;;;;;21.42;15.23;;;614.70;2150.40;;;;;;5075873;28;20036;-60
2021/07/07 05:20:03;;;;;;;19.98;15.05;;;614.70;2124.80;;;;;;5075535;28;20025;-60
2021/07/07 05:22:29;;;;;;;18.77;14.13;;;614.70;2124.80;;;;;;5087922;28;20046;-59
2021/07/07 05:24:55;;;;;;;21.38;13.70;;;614.80;2124.80;;;;;;5095275;28;20564;-59
2021/07/07 05:27:21;;;;;;;18.70;13.13;;;614.90;2099.20;;;;;;5095629;28;20027;-60
2021/07/07 05:29:47;;;;;;;17.38;13.00;;;615.10;2099.20;;;;;;5095866;28;20045;-60
2021/07/07 05:32:12;;;;;;;18.13;13.35;;;615.10;2073.60;;;;;;5095665;28;20479;-60
2021/07/07 05:34:40;;;;;;;15.85;12.05;;;615.20;2073.60;;;;;;5095559;28;20028;-60
2021/07/07 05:37:06;;;;;;;14.45;11.93;;;615.30;2022.40;;;;;;5095398;28;20012;-61
2021/07/07 05:39:31;;;;;;;16.90;11.80;;;640.00;2022.40;;;;;;5095269;28;20373;-59
2021/07/07 05:41:58;;;;;;;15.23;11.95;;;640.10;1996.80;;;;;;5095377;28;20028;-60
2021/07/07 05:44:25;;;;;;;19.58;11.68;;;640.30;1996.80;;;;;;5095592;28;20020;-59
2021/07/07 05:46:50;;;;;;;18.63;11.98;;;640.40;1971.20;;;;;;5095390;28;20058;-59
2021/07/07 05:49:16;;;;;;;17.60;11.75;;;640.50;1971.20;;;;;;5095217;28;20032;-59
2021/07/07 05:51:42;;;;;;;15.82;10.18;;;640.70;1920.00;;;;;;5086946;28;20028;-60
2021/07/07 05:54:07;;;;;;;20.90;10.85;;;640.80;1868.80;;;;;;5094256;28;20470;-60
2021/07/07 05:56:33;;;;;;;12.63;9.80;;;665.60;1894.40;;;;;;5094397;28;20028;-60
2021/07/07 05:58:59;;;;;;;13.10;9.63;;;665.60;1894.40;;;;;;5094953;28;20354;-60
2021/07/07 06:01:25;;;;;;;12.60;10.23;;;665.80;1868.80;;;;;;5095029;28;20066;-59
2021/07/07 06:03:51;;;;;;;14.63;10.15;;;665.90;1868.80;;;;;;5094897;28;20501;-59
2021/07/07 06:06:17;;;;;;;13.20;9.80;;;666.00;1843.20;;;;;;5094886;28;20032;-60
2021/07/07 06:08:43;;;;;;;16.23;10.07;;;666.10;1868.80;;;;;;5094712;28;20039;-59
2021/07/07 06:11:09;;;;;;;15.05;9.98;;;666.20;1843.20;;;;;;5094618;28;20044;-60
2021/07/07 06:13:34;;;;;;;12.85;9.70;;;666.40;1817.60;;;;;;5094736;28;20028;-60
2021/07/07 06:16:00;;;;;;;10.45;8.77;;;666.40;1792.00;;;;;;5095045;28;20020;-59
2021/07/07 06:18:27;;;;;;;12.38;8.90;;;666.50;1792.00;;;;;;5094738;28;20024;-61
2021/07/07 06:20:52;;;;;;;13.38;8.57;;;691.30;1766.40;;;;;;5094885;28;20363;-60
2021/07/07 06:23:18;;;;;;;12.05;8.75;;;691.30;1766.40;;;;;;5094183;28;20048;-60
2021/07/07 06:25:44;;;;;;;11.52;8.80;;;691.50;1740.80;;;;;;5094445;28;20012;-60
2021/07/07 06:28:10;;;;;;;13.65;8.85;;;691.60;1740.80;;;;;;5093633;28;20024;-59
2021/07/07 06:30:36;;;;;;;13.10;9.45;;;691.70;1715.20;;;;;;5094286;28;20040;-60
2021/07/07 06:33:03;;;;;;;11.75;9.27;;;691.80;1715.20;;;;;;5094498;28;20020;-60
2021/07/07 06:35:35;;;;;;;13.70;9.07;;;692.00;1689.60;;;;;;5093706;28;20444;-60
2021/07/07 06:38:01;;;;;;;11.27;8.70;;;692.00;1715.20;;;;;;5094212;28;20040;-59
2021/07/07 06:40:28;;;;;;;10.93;8.63;;;692.10;1689.60;;;;;;5094412;28;20032;-60
2021/07/07 06:42:54;;;;;;;12.25;8.00;;;716.80;1689.60;;;;;;5094085;28;20024;-60
2021/07/07 06:45:21;;;;;;;10.57;8.38;;;717.00;1664.00;;;;;;5093724;28;20081;-59
2021/07/07 06:47:46;;;;;;;9.73;7.90;;;717.00;1638.40;;;;;;5094200;28;20020;-59
2021/07/07 06:50:14;;;;;;;12.40;7.82;;;717.10;1638.40;;;;;;5094025;28;20155;-60
2021/07/07 06:52:41;;;;;;;12.43;8.07;;;717.20;1638.40;;;;;;5094220;28;20024;-61
2021/07/07 06:55:08;;;;;;;10.73;8.00;;;717.40;1587.20;;;;;;5093915;28;20043;-62
2021/07/07 06:57:36;;;;;;;11.23;7.78;;;717.50;1587.20;;;;;;5094204;28;20028;-60
2021/07/07 07:00:14;;;;;;;10.65;8.10;;;717.60;1561.60;;;;;;5094081;28;20378;-59
2021/07/07 07:02:43;;;;;;;10.23;7.63;;;717.70;1561.60;;;;;;5093880;28;20466;-59
2021/07/07 07:05:11;;;;;;;12.52;7.57;;;742.40;1587.20;;;;;;5093978;28;20024;-60
2021/07/07 07:07:37;;;;;;;9.73;7.32;;;742.50;1587.20;;;;;;5093866;28;20028;-60
2021/07/07 07:10:05;;;;;;;13.82;7.53;;;742.60;1587.20;;;;;;5093040;28;20061;-61
2021/07/07 07:12:31;;;;;;;9.27;7.38;;;742.80;1536.00;;;;;;5093832;28;20021;-59
2021/07/07 07:14:57;;;;;;;12.57;7.75;;;742.90;1510.40;;;;;;5093837;28;20032;-61
2021/07/07 07:17:24;;;;;;;9.52;7.53;;;743.00;1510.40;;;;;;5093931;28;20047;-60
2021/07/07 07:19:51;;;;;;;9.05;7.28;;;743.10;1484.80;;;;;;5093961;28;20034;-60
2021/07/07 07:22:17;;;;;;;9.70;7.20;;;743.20;1484.80;;;;;;5094165;28;20020;-60
2021/07/07 07:24:45;;;;;;;12.25;7.35;;;743.30;1459.20;;;;;;5093139;28;20123;-60
2021/07/07 07:27:12;;;;;;;11.30;7.10;;;768.00;1433.60;;;;;;5090384;28;20024;-60
2021/07/07 07:29:38;;;;;;;8.52;7.05;;;768.10;1408.00;;;;;;5093640;28;20048;-61
2021/07/07 07:32:05;;;;;;;11.65;7.68;;;768.30;1408.00;;;;;;5093703;28;20054;-61
2021/07/07 07:34:31;;;;;;;14.27;7.32;;;768.30;1382.40;;;;;;5093693;28;20554;-61
2021/07/07 07:37:02;;;;;;;8.93;6.95;;;768.40;1408.00;;;;;;5093501;28;20126;-61
2021/07/07 07:39:29;;;;;;;9.68;7.00;;;768.60;1382.40;;;;;;5093799;28;20030;-61
2021/07/07 07:41:59;;;;;;;12.40;7.55;;;768.70;1382.40;;;;;;5093546;28;20021;-61
2021/07/07 07:44:26;;;;;;;10.27;7.22;;;768.80;1356.80;;;;;;5093542;28;20103;-61
2021/07/07 07:46:55;;;;;;;13.02;7.05;;;793.60;1382.40;;;;;;5093217;28;20055;-61
2021/07/07 07:49:21;;;;;;;11.73;7.32;;;793.60;1408.00;;;;;;5092597;28;20032;-60
2021/07/07 07:51:47;;;;;;;12.75;7.50;;;793.70;1382.40;;;;;;5093061;28;20043;-60
2021/07/07 07:54:13;;;;;;;12.60;7.50;;;793.80;1408.00;;;;;;5093479;28;20239;-60
2021/07/07 07:56:38;;;;;;;11.88;7.30;;;793.90;1356.80;;;;;;5087179;28;20028;-61
2021/07/07 07:59:04;;;;;;;13.05;7.15;;;794.10;1356.80;;;;;;5091340;28;20492;-61
2021/07/07 08:01:30;;;;;;;11.68;7.30;;;794.20;1356.80;;;;;;5093292;28;20034;-60
2021/07/07 08:03:55;;;;;;;8.02;7.20;;;794.40;1305.60;;;;;;5091473;28;20089;-60
2021/07/07 08:06:21;;;;;;;8.50;7.18;;;794.40;1331.20;;;;;;5093182;28;20035;-61
2021/07/07 08:08:47;;;;;;;11.25;7.47;;;794.50;1331.20;;;;;;5092490;28;20036;-59
2021/07/07 08:11:12;;;;;;;10.30;7.25;;;819.20;1331.20;;;;;;5090883;28;20133;-60
2021/07/07 08:13:38;;;;;;;8.10;6.93;;;819.30;1331.20;;;;;;5080054;28;20097;-60
2021/07/07 08:16:05;;;;;;;10.65;7.57;;;819.40;1356.80;;;;;;5082823;28;20127;-60
2021/07/07 08:18:30;;;;;;;9.18;7.68;;;819.50;1305.60;;;;;;5080211;28;20025;-59
2021/07/07 08:20:56;;;;;;;12.10;7.30;;;819.60;1280.00;;;;;;5093048;28;20075;-60
2021/07/07 08:23:22;;;;;;;7.78;6.95;;;819.60;1280.00;;;;;;5095216;28;20105;-59
2021/07/07 08:25:48;;;;;;;11.82;7.22;;;819.70;1305.60;;;;;;5094979;28;20097;-59
2021/07/07 08:28:14;;;;;;;9.18;6.97;;;819.80;1254.40;;;;;;5095713;28;20469;-59
2021/07/07 08:30:41;;;;;;;7.85;6.82;;;819.90;1254.40;;;;;;5095503;28;20036;-59
2021/07/07 08:33:07;;;;;;;14.55;7.60;;;819.90;1254.40;;;;;;5096776;28;20031;-59
2021/07/07 08:35:33;;;;;;;7.60;6.80;;;820.00;1228.80;;;;;;5096767;28;20028;-60
2021/07/07 08:37:58;;;;;;;9.63;7.20;;;844.80;1228.80;;;;;;5095833;28;20510;-60
2021/07/07 08:40:25;;;;;;;9.82;7.55;;;844.80;1177.60;;;;;;5096540;28;20058;-60
2021/07/07 08:42:51;;;;;;;9.38;7.40;;;844.90;1203.20;;;;;;5095369;28;20120;-60
2021/07/07 08:45:18;;;;;;;9.60;8.02;;;845.00;1203.20;;;;;;5091144;28;20504;-59
2021/07/07 08:47:45;;;;;;;8.93;7.85;;;845.10;1203.20;;;;;;5096005;28;20028;-59
2021/07/07 08:50:26;;;;;;;9.93;7.05;;;845.10;1177.60;;;;;;5096195;28;20028;-60
2021/07/07 08:52:53;;;;;;;9.82;7.13;;;845.30;1203.20;;;;;;5091624;28;20024;-59
2021/07/07 08:55:19;;;;;;;10.40;7.43;;;845.30;1203.20;;;;;;5095700;28;20161;-60
2021/07/07 08:57:46;;;;;;;9.55;7.28;;;845.40;1177.60;;;;;;5095042;28;20081;-59
2021/07/07 09:00:16;;;;;;;10.32;7.95;;;845.60;1177.60;;;;;;5095303;28;20028;-58
2021/07/07 09:03:05;;;;;;;11.25;7.47;;;845.60;1152.00;;;;;;5096004;28;20020;-58
2021/07/07 09:05:46;;;;;;;8.90;7.32;;;845.60;1152.00;;;;;;5096248;28;20389;-59
2021/07/07 09:08:11;;;;;;;10.25;8.02;;;845.60;1152.00;;;;;;5096067;28;20050;-59
2021/07/07 09:10:37;;;;;;;9.48;8.20;;;845.70;1152.00;;;;;;5093631;28;20032;-59
2021/07/07 09:13:15;;;;;;;12.20;7.63;;;870.40;1152.00;;;;;;5095431;28;20059;-60
2021/07/07 09:15:41;;;;;;;10.40;8.32;;;870.40;1126.40;;;;;;5096035;28;20397;-59
2021/07/07 09:18:07;;;;;;;9.80;8.05;;;870.50;1100.80;;;;;;5096043;28;20020;-59
2021/07/07 09:20:38;;;;;;;11.02;8.05;;;870.60;1100.80;;;;;;5095901;28;20039;-58
2021/07/07 09:23:23;;;;;;;9.57;8.57;;;870.60;1126.40;;;;;;5095757;28;20097;-59
2021/07/07 09:25:50;;;;;;;10.43;8.55;;;870.80;1100.80;;;;;;5095755;28;20378;-58
2021/07/07 09:28:27;;;;;;;10.18;8.35;;;870.80;1075.20;;;;;;5095453;28;20396;-59
2021/07/07 09:30:56;;;;;;;11.38;7.97;;;870.80;1100.80;;;;;;5095107;28;20090;-60
2021/07/07 09:33:22;;;;;;;8.95;7.97;;;871.00;1100.80;;;;;;5094881;28;20047;-61
2021/07/07 09:35:49;;;;;;;10.30;8.35;;;871.00;1049.60;;;;;;5095698;28;20094;-61
2021/07/07 09:38:17;;;;;;;11.00;8.02;;;871.00;1075.20;;;;;;5095409;28;20530;-62
2021/07/07 09:40:44;;;;;;;11.02;8.85;;;871.00;1075.20;;;;;;5095364;28;20032;-60
2021/07/07 09:43:14;;;;;;;10.15;8.05;;;871.20;1075.20;;;;;;5094052;28;20051;-61
2021/07/07 09:45:47;;;;;;;9.80;7.88;;;871.20;1049.60;;;;;;5095160;28;20458;-60
2021/07/07 09:48:15;;;;;;;10.65;8.18;;;871.30;1075.20;;;;;;5094951;28;20416;-65
2021/07/07 09:50:45;;;;;;;10.10;8.73;;;896.00;1100.80;;;;;;5095402;28;20036;-60
2021/07/07 09:53:13;;;;;;;10.73;8.45;;;871.30;1024.00;;;;;;5091871;28;20021;-61
2021/07/07 09:55:42;;;;;;;9.18;8.27;;;896.20;1024.00;;;;;;5083965;28;20032;-60
2021/07/07 09:58:08;;;;;;;11.77;8.82;;;896.10;1024.00;;;;;;5083651;28;20017;-60
2021/07/07 10:00:40;;;;;;;9.35;8.38;;;896.00;998.40;;;;;;5087826;28;20032;-61
2021/07/07 10:03:06;;;;;;;10.30;9.20;;;896.10;998.40;;;;;;5087885;28;20485;-60
2021/07/07 10:05:40;;;;;;;9.68;8.73;;;896.20;998.40;;;;;;5084306;28;20025;-62
2021/07/07 10:08:07;;;;;;;11.93;8.68;;;896.30;998.40;;;;;;5083202;28;20020;-60
2021/07/07 10:10:37;;;;;;;9.07;8.27;;;896.30;998.40;;;;;;5085708;28;20036;-62
2021/07/07 10:13:05;;;;;;;8.93;8.02;;;896.60;998.40;;;;;;5090668;28;20103;-61
2021/07/07 10:15:32;;;;;;;9.38;8.32;;;896.80;998.40;;;;;;5085882;28;20466;-62
2021/07/07 10:17:58;;;;;;;10.15;8.43;;;896.60;972.80;;;;;;5082765;28;20024;-60
2021/07/07 10:20:24;;;;;;;8.90;8.00;;;896.80;947.20;;;;;;5084371;28;20035;-62
2021/07/07 10:22:51;;;;;;;8.80;8.00;;;896.80;947.20;;;;;;5087572;28;20039;-61
2021/07/07 10:25:20;;;;;;;12.70;7.78;;;896.80;972.80;;;;;;5082322;28;20024;-62
2021/07/07 10:27:47;;;;;;;8.98;8.07;;;896.90;972.80;;;;;;5082515;28;20020;-61
2021/07/07 10:30:14;;;;;;;9.55;7.70;;;896.80;998.40;;;;;;5082752;28;20043;-62
2021/07/07 10:32:40;;;;;;;10.18;7.80;;;896.80;998.40;;;;;;5083192;28;20111;-61
2021/07/07 10:35:08;;;;;;;10.80;7.68;;;896.90;972.80;;;;;;5089493;28;20123;-60
2021/07/07 10:37:35;;;;;;;11.32;8.18;;;896.90;972.80;;;;;;5080389;28;20124;-60
2021/07/07 10:40:24;;;;;;;8.43;7.55;;;896.80;972.80;;;;;;5082938;28;20104;-63
2021/07/07 10:42:50;;;;;;;9.60;7.53;;;896.90;947.20;;;;;;5087886;28;20028;-60
2021/07/07 10:45:43;;;;;;;10.52;7.45;;;896.90;947.20;;;;;;5081248;28;20062;-63
2021/07/07 10:48:29;;;;;;;8.25;7.45;;;896.90;947.20;;;;;;5027899;28;20034;-61
2021/07/07 10:50:57;;;;;;;8.40;7.45;;;896.90;972.80;;;;;;5030613;28;20041;-61
2021/07/07 10:53:30;;;;;;;9.73;7.05;;;921.70;972.80;;;;;;5031775;28;20083;-63
2021/07/07 10:55:57;;;;;;;13.77;7.63;;;896.90;921.60;;;;;;4998706;28;20478;-60
2021/07/07 10:58:35;;;;;;;12.90;7.38;;;921.60;972.80;;;;;;5013597;28;20632;-61
2021/07/07 11:01:03;;;;;;;10.88;7.10;;;921.60;972.80;;;;;;5027266;28;20021;-63
2021/07/07 11:06:23;;;;;;;10.15;7.10;;;921.60;947.20;;;;;;5023159;28;20033;-60
2021/07/07 11:08:57;;;;;;;10.27;7.20;;;921.80;921.60;;;;;;5029635;28;20095;-61
2021/07/07 11:11:24;;;;;;;7.47;6.38;;;921.90;921.60;;;;;;5027717;28;20110;-61
2021/07/07 11:13:51;;;;;;;9.30;7.28;;;921.80;896.00;;;;;;5031166;28;20030;-62
2021/07/07 11:16:23;;;;;;;8.05;7.10;;;921.90;896.00;;;;;;5030318;28;20032;-64
2021/07/07 11:18:51;;;;;;;9.70;7.32;;;921.90;896.00;;;;;;5031720;28;20533;-63
2021/07/07 11:21:18;;;;;;;11.43;7.30;;;921.90;921.60;;;;;;5031249;28;20133;-64
2021/07/07 11:23:44;;;;;;;8.52;7.13;;;921.90;896.00;;;;;;5031579;28;20522;-60
2021/07/07 11:26:11;;;;;;;8.82;7.28;;;921.90;896.00;;;;;;5071761;28;20497;-60
2021/07/07 11:28:37;;;;;;;11.52;7.40;;;921.80;921.60;;;;;;5073543;28;20520;-61
2021/07/07 11:31:03;;;;;;;7.65;6.80;;;921.60;921.60;;;;;;5080708;28;20109;-61
2021/07/07 11:33:29;;;;;;;10.10;6.85;;;921.70;896.00;;;;;;5073403;28;20020;-62
2021/07/07 11:35:56;;;;;;;7.78;6.55;;;921.80;921.60;;;;;;5076112;28;20032;-60
2021/07/07 11:38:22;;;;;;;9.23;6.40;;;921.90;896.00;;;;;;5075483;28;20025;-60
2021/07/07 11:40:53;;;;;;;10.43;7.38;;;921.90;896.00;;;;;;5073362;28;20421;-62
2021/07/07 11:43:28;;;;;;;14.07;7.00;;;922.20;947.20;;;;;;5090785;28;20048;-64
2021/07/07 11:45:57;;;;;;;9.52;7.30;;;921.90;972.80;;;;;;5088687;28;20502;-63
2021/07/07 11:48:27;;;;;;;7.78;6.97;;;921.90;947.20;;;;;;5075667;28;20082;-62
2021/07/07 11:50:59;;;;;;;8.48;6.57;;;921.90;947.20;;;;;;5082806;28;20081;-62
2021/07/07 11:53:45;;;;;;;9.50;6.60;;;922.10;947.20;;;;;;5086105;28;20107;-63
2021/07/07 11:56:19;;;;;;;7.95;6.90;;;921.90;921.60;;;;;;5089390;28;20603;-63
2021/07/07 11:58:55;;;;;;;9.88;6.65;;;922.10;896.00;;;;;;5093187;28;20043;-63
2021/07/07 12:01:24;;;;;;;9.98;6.40;;;922.30;870.40;;;;;;5091867;28;20376;-61
2021/07/07 12:04:06;;;;;;;8.55;6.40;;;922.40;896.00;;;;;;5093836;28;20031;-61
2021/07/07 12:06:33;;;;;;;7.07;6.20;;;922.50;870.40;;;;;;5090141;28;20146;-60
2021/07/07 12:09:01;;;;;;;8.52;6.97;;;947.20;870.40;;;;;;5093160;28;20051;-61
2021/07/07 12:11:27;;;;;;;7.95;6.45;;;947.20;870.40;;;;;;5091383;28;20032;-59
2021/07/07 12:13:56;;;;;;;8.05;6.30;;;947.30;896.00;;;;;;5096641;28;20050;-60
2021/07/07 12:16:37;;;;;;;7.40;6.20;;;922.50;896.00;;;;;;5094257;28;20032;-61